Time,TemperatureF,DewpointF,PressureIn,WindDirection,WindDirectionDegrees,WindSpeedMPH,WindSpeedGustMPH,Humidity,HourlyPrecipIn,Conditions,Clouds,dailyrainin,SoftwareType,DateUTC
2013-03-11 00:00:00,26.4,23.3,29.74,ENE,69,0.0,0.0,88,0.00,CLR,SKC,0.00,WeatherDisplay:10.37,2013-03-11 00:00:00,
2013-03-11 00:05:00,26.4,23.3,29.73,East,87,0.0,0.0,88,0.00,CLR,SKC,0.00,WeatherDisplay:10.37,2013-03-11 00:05:00,
2013-03-11 00:10:00,26.2,23.2,29.73,East,95,0.0,0.0,88,0.00,CLR,SKC,0.00,WeatherDisplay:10.37,2013-03-11 00:10:00,
2013-03-11 00:15:00,26.1,23.0,29.73,East,88,0.0,0.0,88,0.00,CLR,SKC,0.00,WeatherDisplay:10.37,2013-03-11 00:15:00,
2013-03-11 00:20:00,26.1,23.0,29.73,East,100,0.0,0.0,88,0.00,CLR,SKC,0.00,WeatherDisplay:10.37,2013-03-11 00:20:00,
2013-03-11 00:25:00,25.9,22.8,29.74,East,100,0.0,0.0,88,0.00,CLR,SKC,0.00,WeatherDisplay:10.37,2013-03-11 00:25:00,
2013-03-11 00:30:00,25.9,22.8,29.74,ENE,78,0.0,0.0,88,0.00,CLR,SKC,0.00,WeatherDisplay:10.37,2013-03-11 00:30:00,
2013-03-11 00:35:00,26.1,23.0,29.74,East,86,0.0,0.0,88,0.00,CLR,SKC,0.00,WeatherDisplay:10.37,2013-03-11 00:35:00,
2013-03-11 00:40:00,25.9,22.8,29.74,East,93,0.0,0.0,88,0.00,CLR,SKC,0.00,WeatherDisplay:10.37,2013-03-11 00:40:00,
2013-03-11 00:45:00,25.7,22.6,29.74,East,89,0.0,0.0,88,0.00,CLR,SKC,0.00,WeatherDisplay:10.37,2013-03-11 00:45:00,
2013-03-11 00:50:00,25.7,22.6,29.75,East,85,0.0,0.0,88,0.00,CLR,SKC,0.00,WeatherDisplay:10.37,2013-03-11 00:50:00,
2013-03-11 00:55:00,25.9,22.5,29.75,ENE,78,0.0,0.0,87,0.00,CLR,SKC,0.00,WeatherDisplay:10.37,2013-03-11 00:55:00,
2013-03-11 01:00:00,25.9,22.5,29.74,ENE,75,0.0,0.0,87,0.00,CLR,SKC,0.00,WeatherDisplay:10.37,2013-03-11 01:00:00,
2013-03-11 01:05:00,25.7,22.4,29.74,East,91,0.0,0.0,87,0.00,CLR,SKC,0.00,WeatherDisplay:10.37,2013-03-11 01:05:00,
2013-03-11 01:10:00,25.7,22.4,29.74,ESE,102,0.0,0.0,87,0.00,CLR,SKC,0.00,WeatherDisplay:10.37,2013-03-11 01:10:00,
2013-03-11 01:20:00,25.5,22.2,29.74,East,96,0.0,0.0,87,0.00,CLR,SKC,0.00,WeatherDisplay:10.37,2013-03-11 01:20:00,
2013-03-11 01:25:00,25.3,22.0,29.74,East,85,0.0,0.0,87,0.00,CLR,SKC,0.00,WeatherDisplay:10.37,2013-03-11 01:25:00,
2013-03-11 01:30:00,25.2,21.8,29.74,East,91,0.0,0.0,87,0.00,CLR,SKC,0.00,WeatherDisplay:10.37,2013-03-11 01:30:00,
2013-03-11 01:35:00,25.1,21.8,29.74,East,94,0.0,0.0,87,0.00,CLR,SKC,0.00,WeatherDisplay:10.37,2013-03-11 01:35:00,
2013-03-11 01:45:00,24.6,21.3,29.74,East,80,0.0,0.0,87,0.00,CLR,SKC,0.00,WeatherDisplay:10.37,2013-03-11 01:45:00,
2013-03-11 01:50:00,24.6,21.3,29.74,ENE,78,0.0,0.0,87,0.00,CLR,SKC,0.00,WeatherDisplay:10.37,2013-03-11 01:50:00,
2013-03-11 01:55:00,25.0,21.7,29.75,East,91,0.0,0.0,87,0.00,CLR,SKC,0.00,WeatherDisplay:10.37,2013-03-11 01:55:00,
2013-03-11 02:00:00,25.5,22.5,29.75,East,89,0.0,0.0,88,0.00,CLR,SKC,0.00,WeatherDisplay:10.37,2013-03-11 02:00:00,
2013-03-11 02:05:00,25.8,22.4,29.75,East,83,0.0,0.0,87,0.00,CLR,SKC,0.00,WeatherDisplay:10.37,2013-03-11 02:05:00,
2013-03-11 02:15:00,26.4,22.8,29.75,ENE,69,0.0,0.0,86,0.00,CLR,SKC,0.00,WeatherDisplay:10.37,2013-03-11 02:15:00,
2013-03-11 02:20:00,26.4,22.8,29.75,East,82,0.0,0.0,86,0.00,CLR,SKC,0.00,WeatherDisplay:10.37,2013-03-11 02:20:00,
2013-03-11 02:30:00,26.1,22.4,29.75,ESE,109,0.0,0.0,86,0.00,CLR,SKC,0.00,WeatherDisplay:10.37,2013-03-11 02:30:00,
2013-03-11 02:35:00,25.9,22.3,29.75,ESE,107,0.0,0.0,86,0.00,CLR,SKC,0.00,WeatherDisplay:10.37,2013-03-11 02:35:00,
2013-03-11 02:40:00,25.7,22.1,29.75,East,91,0.0,0.0,86,0.00,CLR,SKC,0.00,WeatherDisplay:10.37,2013-03-11 02:40:00,
2013-03-11 02:50:00,26.1,22.5,29.75,ENE,74,0.0,0.0,86,0.00,CLR,SKC,0.00,WeatherDisplay:10.37,2013-03-11 02:50:00,
2013-03-11 03:00:00,26.2,22.9,29.75,East,80,0.0,0.0,87,0.00,CLR,SKC,0.00,WeatherDisplay:10.37,2013-03-11 03:00:00,
2013-03-11 03:05:00,25.8,22.5,29.75,East,91,0.0,0.0,87,0.00,CLR,SKC,0.00,WeatherDisplay:10.37,2013-03-11 03:05:00,
2013-03-11 03:10:00,25.5,22.2,29.75,East,80,0.0,0.0,87,0.00,CLR,SKC,0.00,WeatherDisplay:10.37,2013-03-11 03:10:00,
2013-03-11 03:20:00,25.2,22.1,29.75,East,81,0.0,0.0,88,0.00,CLR,SKC,0.00,WeatherDisplay:10.37,2013-03-11 03:20:00,
2013-03-11 03:30:00,25.2,22.1,29.74,ENE,74,0.0,0.0,88,0.00,CLR,SKC,0.00,WeatherDisplay:10.37,2013-03-11 03:30:00,
2013-03-11 03:35:00,25.2,22.1,29.74,East,81,0.0,0.0,88,0.00,CLR,SKC,0.00,WeatherDisplay:10.37,2013-03-11 03:35:00,
2013-03-11 03:40:00,25.3,22.3,29.74,ENE,73,0.0,0.0,88,0.00,CLR,SKC,0.00,WeatherDisplay:10.37,2013-03-11 03:40:00,
2013-03-11 03:45:00,25.5,22.5,29.75,ENE,62,0.0,0.0,88,0.00,CLR,SKC,0.00,WeatherDisplay:10.37,2013-03-11 03:45:00,
2013-03-11 03:50:00,25.5,22.5,29.75,ENE,70,0.0,0.0,88,0.00,CLR,SKC,0.00,WeatherDisplay:10.37,2013-03-11 03:50:00,
2013-03-11 03:55:00,25.7,22.6,29.75,East,79,0.0,0.0,88,0.00,CLR,SKC,0.00,WeatherDisplay:10.37,2013-03-11 03:55:00,
2013-03-11 04:00:00,25.7,22.6,29.75,East,88,0.0,0.0,88,0.00,CLR,SKC,0.00,WeatherDisplay:10.37,2013-03-11 04:00:00,
2013-03-11 04:05:00,26.2,22.9,29.76,East,86,0.0,0.0,87,0.00,CLR,SKC,0.00,WeatherDisplay:10.37,2013-03-11 04:05:00,
2013-03-11 04:10:00,26.2,22.9,29.76,East,97,0.0,0.0,87,0.00,CLR,SKC,0.00,WeatherDisplay:10.37,2013-03-11 04:10:00,
2013-03-11 04:15:00,26.4,22.8,29.75,East,100,0.0,0.0,86,0.00,CLR,SKC,0.00,WeatherDisplay:10.37,2013-03-11 04:15:00,
2013-03-11 04:20:00,26.4,22.8,29.76,East,88,0.0,0.0,86,0.00,CLR,SKC,0.00,WeatherDisplay:10.37,2013-03-11 04:20:00,
2013-03-11 04:25:00,26.1,22.5,29.75,ENE,77,0.0,0.0,86,0.00,CLR,SKC,0.00,WeatherDisplay:10.37,2013-03-11 04:25:00,
2013-03-11 04:30:00,25.9,22.3,29.75,East,81,0.0,0.0,86,0.00,CLR,SKC,0.00,WeatherDisplay:10.37,2013-03-11 04:30:00,
2013-03-11 04:35:00,25.3,21.7,29.75,East,100,0.0,0.0,86,0.00,CLR,SKC,0.00,WeatherDisplay:10.37,2013-03-11 04:35:00,
2013-03-11 04:40:00,25.2,21.6,29.75,ESE,103,0.0,0.0,86,0.00,CLR,SKC,0.00,WeatherDisplay:10.37,2013-03-11 04:40:00,
2013-03-11 04:45:00,25.0,21.4,29.75,East,94,0.0,0.0,86,0.00,CLR,SKC,0.00,WeatherDisplay:10.37,2013-03-11 04:45:00,
2013-03-11 04:50:00,25.0,21.1,29.75,East,79,0.0,0.0,85,0.00,CLR,SKC,0.00,WeatherDisplay:10.37,2013-03-11 04:50:00,
2013-03-11 04:55:00,24.8,20.9,29.76,ENE,73,0.0,0.0,85,0.00,CLR,SKC,0.00,WeatherDisplay:10.37,2013-03-11 04:55:00,
2013-03-11 05:00:00,24.6,20.8,29.75,East,82,0.0,0.0,85,0.00,CLR,SKC,0.00,WeatherDisplay:10.37,2013-03-11 05:00:00,
2013-03-11 05:05:00,24.6,21.0,29.75,East,97,0.0,0.0,86,0.00,CLR,SKC,0.00,WeatherDisplay:10.37,2013-03-11 05:05:00,
2013-03-11 05:10:00,24.8,21.2,29.76,ESE,109,0.0,0.0,86,0.00,CLR,SKC,0.00,WeatherDisplay:10.37,2013-03-11 05:10:00,
2013-03-11 05:15:00,25.2,21.6,29.76,ESE,106,0.0,0.0,86,0.00,CLR,SKC,0.00,WeatherDisplay:10.37,2013-03-11 05:15:00,
2013-03-11 05:20:00,25.6,22.0,29.76,East,100,0.0,0.0,86,0.00,CLR,SKC,0.00,WeatherDisplay:10.37,2013-03-11 05:20:00,
2013-03-11 05:25:00,25.9,22.3,29.76,East,82,0.0,0.0,86,0.00,CLR,SKC,0.00,WeatherDisplay:10.37,2013-03-11 05:25:00,
2013-03-11 05:30:00,25.9,22.5,29.75,East,86,0.0,0.0,87,0.00,CLR,SKC,0.00,WeatherDisplay:10.37,2013-03-11 05:30:00,
2013-03-11 05:35:00,26.1,22.7,29.75,East,91,0.0,0.0,87,0.00,CLR,SKC,0.00,WeatherDisplay:10.37,2013-03-11 05:35:00,
2013-03-11 05:40:00,25.9,22.5,29.75,East,92,0.0,0.0,87,0.00,CLR,SKC,0.00,WeatherDisplay:10.37,2013-03-11 05:40:00,
2013-03-11 05:45:00,25.5,21.9,29.75,East,93,0.0,0.0,86,0.00,CLR,SKC,0.00,WeatherDisplay:10.37,2013-03-11 05:45:00,
2013-03-11 05:50:00,25.3,21.7,29.75,East,88,0.0,0.0,86,0.00,CLR,SKC,0.00,WeatherDisplay:10.37,2013-03-11 05:50:00,
2013-03-11 05:55:00,24.6,21.0,29.76,East,81,0.0,0.0,86,0.00,CLR,SKC,0.00,WeatherDisplay:10.37,2013-03-11 05:55:00,
2013-03-11 06:00:00,24.6,21.0,29.76,ENE,73,0.0,0.0,86,0.00,CLR,SKC,0.00,WeatherDisplay:10.37,2013-03-11 06:00:00,
2013-03-11 06:05:00,24.4,20.9,29.76,ENE,78,0.0,0.0,86,0.00,CLR,SKC,0.00,WeatherDisplay:10.37,2013-03-11 06:05:00,
2013-03-11 06:10:00,24.4,20.9,29.76,ENE,76,0.0,0.0,86,0.00,CLR,SKC,0.00,WeatherDisplay:10.37,2013-03-11 06:10:00,
2013-03-11 06:15:00,24.4,20.9,29.75,ENE,72,0.0,0.0,86,0.00,CLR,SKC,0.00,WeatherDisplay:10.37,2013-03-11 06:15:00,
2013-03-11 06:20:00,24.8,20.9,29.75,East,100,0.0,0.0,85,0.00,CLR,SKC,0.00,WeatherDisplay:10.37,2013-03-11 06:20:00,
2013-03-11 06:25:00,25.1,21.2,29.75,East,95,0.0,0.0,85,0.00,CLR,SKC,0.00,WeatherDisplay:10.37,2013-03-11 06:25:00,
2013-03-11 06:30:00,25.2,21.3,29.75,East,90,0.0,0.0,85,0.00,CLR,SKC,0.00,WeatherDisplay:10.37,2013-03-11 06:30:00,
2013-03-11 06:35:00,25.0,21.1,29.75,East,89,0.0,0.0,85,0.00,CLR,SKC,0.00,WeatherDisplay:10.37,2013-03-11 06:35:00,
2013-03-11 06:40:00,25.0,20.8,29.75,East,87,0.0,0.0,84,0.00,CLR,SKC,0.00,WeatherDisplay:10.37,2013-03-11 06:40:00,
2013-03-11 06:45:00,24.6,20.5,29.76,East,89,0.0,0.0,84,0.00,CLR,SKC,0.00,WeatherDisplay:10.37,2013-03-11 06:45:00,
2013-03-11 06:50:00,24.6,20.5,29.76,East,85,0.0,0.0,84,0.00,CLR,SKC,0.00,WeatherDisplay:10.37,2013-03-11 06:50:00,
2013-03-11 06:55:00,24.6,20.5,29.76,East,80,0.0,0.0,84,0.00,CLR,SKC,0.00,WeatherDisplay:10.37,2013-03-11 06:55:00,
2013-03-11 07:00:00,24.4,20.3,29.76,ENE,78,0.0,0.0,84,0.00,CLR,SKC,0.00,WeatherDisplay:10.37,2013-03-11 07:00:00,
2013-03-11 07:05:00,24.6,20.4,29.76,East,87,0.0,0.0,84,0.00,CLR,SKC,0.00,WeatherDisplay:10.37,2013-03-11 07:05:00,
2013-03-11 07:10:00,24.4,20.3,29.76,East,94,0.0,0.0,84,0.00,CLR,SKC,0.00,WeatherDisplay:10.37,2013-03-11 07:10:00,
2013-03-11 07:15:00,24.4,20.3,29.77,East,87,0.0,0.0,84,0.00,CLR,SKC,0.00,WeatherDisplay:10.37,2013-03-11 07:15:00,
2013-03-11 07:20:00,24.6,20.5,29.77,East,85,0.0,0.0,84,0.00,CLR,SKC,0.00,WeatherDisplay:10.37,2013-03-11 07:20:00,
2013-03-11 07:25:00,25.1,20.7,29.77,East,95,0.0,0.0,83,0.00,CLR,SKC,0.00,WeatherDisplay:10.37,2013-03-11 07:25:00,
2013-03-11 07:30:00,25.2,20.7,29.76,East,82,0.0,0.0,83,0.00,CLR,SKC,0.00,WeatherDisplay:10.37,2013-03-11 07:30:00,
2013-03-11 07:35:00,25.4,21.0,29.77,East,88,0.0,0.0,83,0.00,CLR,SKC,0.00,WeatherDisplay:10.37,2013-03-11 07:35:00,
2013-03-11 07:40:00,25.6,20.9,29.77,ESE,112,0.0,0.0,82,0.00,CLR,SKC,0.00,WeatherDisplay:10.37,2013-03-11 07:40:00,
2013-03-11 07:45:00,25.9,21.1,29.77,ESE,111,0.0,0.0,82,0.00,CLR,SKC,0.00,WeatherDisplay:10.37,2013-03-11 07:45:00,
2013-03-11 07:50:00,26.2,21.2,29.77,ESE,109,0.0,0.0,81,0.00,CLR,SKC,0.00,WeatherDisplay:10.37,2013-03-11 07:50:00,
2013-03-11 07:55:00,26.4,21.4,29.77,East,100,0.0,0.0,81,0.00,CLR,SKC,0.00,WeatherDisplay:10.37,2013-03-11 07:55:00,
2013-03-11 08:00:00,26.4,21.4,29.77,East,93,0.0,0.0,81,0.00,CLR,SKC,0.00,WeatherDisplay:10.37,2013-03-11 08:00:00,
2013-03-11 08:05:00,26.4,21.4,29.77,East,95,0.0,0.0,81,0.00,CLR,SKC,0.00,WeatherDisplay:10.37,2013-03-11 08:05:00,
2013-03-11 08:10:00,27.1,22.3,29.77,East,99,0.0,0.0,82,0.00,CLR,SKC,0.00,WeatherDisplay:10.37,2013-03-11 08:10:00,
2013-03-11 08:15:00,27.4,22.4,29.77,East,95,0.0,0.0,81,0.00,CLR,SKC,0.00,WeatherDisplay:10.37,2013-03-11 08:15:00,
2013-03-11 08:20:00,27.3,22.0,29.77,ENE,66,0.0,0.0,80,0.00,CLR,SKC,0.00,WeatherDisplay:10.37,2013-03-11 08:20:00,
2013-03-11 08:25:00,27.1,21.5,29.77,ENE,60,0.0,0.0,79,0.00,CLR,SKC,0.00,WeatherDisplay:10.37,2013-03-11 08:25:00,
2013-03-11 08:30:00,27.3,21.7,29.77,East,89,0.0,0.0,79,0.00,CLR,SKC,0.00,WeatherDisplay:10.37,2013-03-11 08:30:00,
2013-03-11 08:35:00,27.7,22.0,29.77,East,79,0.0,0.0,79,0.00,CLR,SKC,0.00,WeatherDisplay:10.37,2013-03-11 08:35:00,
2013-03-11 08:45:00,28.0,21.7,29.77,East,81,0.0,0.0,77,0.00,CLR,SKC,0.00,WeatherDisplay:10.37,2013-03-11 08:45:00,
2013-03-11 08:55:00,28.0,21.8,29.77,ENE,76,0.0,0.0,77,0.00,CLR,SKC,0.00,WeatherDisplay:10.37,2013-03-11 08:55:00,
2013-03-11 09:00:00,28.2,21.6,29.77,ENE,77,0.0,0.0,76,0.00,CLR,SKC,0.00,WeatherDisplay:10.37,2013-03-11 09:00:00,
2013-03-11 09:05:00,28.3,21.4,29.77,East,98,0.0,0.0,75,0.00,CLR,SKC,0.00,WeatherDisplay:10.37,2013-03-11 09:05:00,
2013-03-11 09:10:00,28.8,21.8,29.77,ENE,65,0.0,0.0,75,0.00,CLR,SKC,0.00,WeatherDisplay:10.37,2013-03-11 09:10:00,
2013-03-11 09:20:00,29.1,21.9,29.77,East,87,0.0,0.0,74,0.00,CLR,SKC,0.00,WeatherDisplay:10.37,2013-03-11 09:20:00,
2013-03-11 09:25:00,29.1,21.9,29.77,ENE,76,0.0,0.0,74,0.00,CLR,SKC,0.00,WeatherDisplay:10.37,2013-03-11 09:25:00,
2013-03-11 09:30:00,29.3,22.0,29.78,East,97,0.0,0.0,74,0.00,CLR,SKC,0.00,WeatherDisplay:10.37,2013-03-11 09:30:00,
2013-03-11 09:35:00,29.3,22.1,29.77,ENE,61,0.0,0.0,74,0.00,CLR,SKC,0.00,WeatherDisplay:10.37,2013-03-11 09:35:00,
2013-03-11 09:40:00,29.8,22.2,29.77,East,101,0.0,0.0,73,0.00,CLR,SKC,0.00,WeatherDisplay:10.37,2013-03-11 09:40:00,
2013-03-11 09:45:00,30.0,22.4,29.78,East,85,0.0,0.0,73,0.00,CLR,SKC,0.00,WeatherDisplay:10.37,2013-03-11 09:45:00,
2013-03-11 09:50:00,30.0,22.1,29.78,ENE,66,0.0,0.0,72,0.00,CLR,SKC,0.00,WeatherDisplay:10.37,2013-03-11 09:50:00,
2013-03-11 09:55:00,30.4,22.4,29.77,East,79,0.0,0.0,72,0.00,CLR,SKC,0.00,WeatherDisplay:10.37,2013-03-11 09:55:00,
2013-03-11 10:00:00,30.7,22.7,29.77,ENE,75,0.0,0.0,72,0.00,CLR,SKC,0.00,WeatherDisplay:10.37,2013-03-11 10:00:00,
2013-03-11 10:05:00,30.7,22.4,29.77,ENE,73,0.0,0.0,71,0.00,CLR,SKC,0.00,WeatherDisplay:10.37,2013-03-11 10:05:00,
2013-03-11 10:10:00,30.7,22.4,29.77,East,89,0.0,0.0,71,0.00,CLR,SKC,0.00,WeatherDisplay:10.37,2013-03-11 10:10:00,
2013-03-11 10:15:00,31.1,22.5,29.78,East,92,0.0,0.0,70,0.00,CLR,SKC,0.00,WeatherDisplay:10.37,2013-03-11 10:15:00,
2013-03-11 10:20:00,30.9,22.3,29.78,East,90,0.0,0.0,70,0.00,CLR,SKC,0.00,WeatherDisplay:10.37,2013-03-11 10:20:00,
2013-03-11 10:25:00,31.0,22.4,29.78,East,95,0.0,0.0,70,0.00,CLR,SKC,0.00,WeatherDisplay:10.37,2013-03-11 10:25:00,
2013-03-11 10:30:00,31.8,23.1,29.78,East,87,0.0,0.0,70,0.00,CLR,SKC,0.00,WeatherDisplay:10.37,2013-03-11 10:30:00,
2013-03-11 10:35:00,32.6,23.5,29.78,East,79,0.0,0.0,69,0.00,CLR,SKC,0.00,WeatherDisplay:10.37,2013-03-11 10:35:00,
2013-03-11 10:40:00,33.0,23.6,29.78,East,84,0.0,0.0,68,0.00,CLR,SKC,0.00,WeatherDisplay:10.37,2013-03-11 10:40:00,
2013-03-11 10:45:00,33.3,23.5,29.78,East,89,0.0,0.0,67,0.00,CLR,SKC,0.00,WeatherDisplay:10.37,2013-03-11 10:45:00,
2013-03-11 10:50:00,33.4,23.3,29.77,East,82,0.0,0.0,66,0.00,CLR,SKC,0.00,WeatherDisplay:10.37,2013-03-11 10:50:00,
2013-03-11 10:55:00,34.7,24.1,29.77,East,82,0.0,0.0,65,0.00,CLR,SKC,0.00,WeatherDisplay:10.37,2013-03-11 10:55:00,
2013-03-11 11:00:00,35.4,24.1,29.77,ESE,102,0.0,0.0,63,0.00,CLR,SKC,0.00,WeatherDisplay:10.37,2013-03-11 11:00:00,
2013-03-11 11:05:00,36.0,23.9,29.77,East,100,0.0,0.0,61,0.00,CLR,SKC,0.00,WeatherDisplay:10.37,2013-03-11 11:05:00,
2013-03-11 11:10:00,36.8,24.6,29.77,East,96,0.0,0.0,61,0.00,CLR,SKC,0.00,WeatherDisplay:10.37,2013-03-11 11:10:00,
2013-03-11 11:15:00,36.9,23.9,29.77,ESE,102,0.0,0.0,59,0.00,CLR,SKC,0.00,WeatherDisplay:10.37,2013-03-11 11:15:00,
2013-03-11 11:20:00,37.7,24.6,29.77,ENE,72,0.0,0.0,59,0.00,CLR,SKC,0.00,WeatherDisplay:10.37,2013-03-11 11:20:00,
2013-03-11 11:25:00,37.1,22.8,29.77,ENE,78,0.0,0.0,56,0.00,CLR,SKC,0.00,WeatherDisplay:10.37,2013-03-11 11:25:00,
2013-03-11 11:30:00,35.8,22.0,29.77,ENE,66,0.0,0.0,57,0.00,CLR,SKC,0.00,WeatherDisplay:10.37,2013-03-11 11:30:00,
2013-03-11 11:35:00,35.4,22.5,29.77,ENE,64,0.0,0.0,59,0.00,CLR,SKC,0.00,WeatherDisplay:10.37,2013-03-11 11:35:00,
2013-03-11 11:40:00,34.5,22.1,29.77,ESE,110,0.0,0.0,60,0.00,CLR,SKC,0.00,WeatherDisplay:10.37,2013-03-11 11:40:00,
2013-03-11 11:45:00,34.5,22.0,29.77,East,100,0.0,0.0,60,0.00,RA,SKC,0.02,WeatherDisplay:10.37,2013-03-11 11:45:00,
2013-03-11 11:50:00,34.2,22.1,29.77,East,101,0.0,0.0,61,0.00,RA,SKC,0.02,WeatherDisplay:10.37,2013-03-11 11:50:00,
2013-03-11 12:00:00,34.0,22.3,29.77,East,89,0.0,0.0,62,0.00,CLR,SKC,0.02,WeatherDisplay:10.37,2013-03-11 12:00:00,
2013-03-11 12:05:00,34.0,22.3,29.77,ESE,106,0.0,0.0,62,0.00,CLR,SKC,0.02,WeatherDisplay:10.37,2013-03-11 12:05:00,
2013-03-11 12:10:00,34.3,22.7,29.77,ESE,121,0.0,0.0,62,0.00,CLR,SKC,0.02,WeatherDisplay:10.37,2013-03-11 12:10:00,
2013-03-11 12:15:00,34.7,23.4,29.77,East,97,0.0,0.0,63,0.00,CLR,SKC,0.02,WeatherDisplay:10.37,2013-03-11 12:15:00,
2013-03-11 12:25:00,34.9,23.2,29.77,East,98,0.0,0.0,62,0.00,CLR,SKC,0.02,WeatherDisplay:10.37,2013-03-11 12:25:00,
2013-03-11 12:30:00,34.9,23.2,29.77,ESE,104,0.0,0.0,62,0.00,CLR,SKC,0.02,WeatherDisplay:10.37,2013-03-11 12:30:00,
2013-03-11 12:35:00,34.5,22.8,29.77,East,88,0.0,0.0,62,0.00,CLR,SKC,0.02,WeatherDisplay:10.37,2013-03-11 12:35:00,
2013-03-11 12:40:00,34.2,22.5,29.77,East,94,0.0,0.0,62,0.00,CLR,SKC,0.02,WeatherDisplay:10.37,2013-03-11 12:40:00,
2013-03-11 12:45:00,33.8,22.5,29.77,East,90,0.0,0.0,63,0.00,CLR,SKC,0.02,WeatherDisplay:10.37,2013-03-11 12:45:00,
2013-03-11 12:50:00,33.8,22.5,29.77,East,96,0.0,0.0,63,0.00,CLR,SKC,0.02,WeatherDisplay:10.37,2013-03-11 12:50:00,
2013-03-11 12:55:00,33.6,22.4,29.76,East,86,0.0,0.0,63,0.00,CLR,SKC,0.02,WeatherDisplay:10.37,2013-03-11 12:55:00,
2013-03-11 13:00:00,33.8,22.9,29.76,ENE,75,0.0,0.0,64,0.00,CLR,SKC,0.02,WeatherDisplay:10.37,2013-03-11 13:00:00,
2013-03-11 13:05:00,34.0,23.5,29.77,East,91,0.0,0.0,65,0.00,CLR,SKC,0.02,WeatherDisplay:10.37,2013-03-11 13:05:00,
2013-03-11 13:10:00,34.3,23.8,29.77,East,96,0.0,0.0,65,0.00,CLR,SKC,0.02,WeatherDisplay:10.37,2013-03-11 13:10:00,
2013-03-11 13:15:00,34.3,23.8,29.77,ESE,104,0.0,0.0,65,0.00,CLR,SKC,0.02,WeatherDisplay:10.37,2013-03-11 13:15:00,
2013-03-11 13:20:00,34.3,23.8,29.76,ESE,117,0.0,0.0,65,0.00,CLR,SKC,0.02,WeatherDisplay:10.37,2013-03-11 13:20:00,
2013-03-11 13:30:00,34.3,23.4,29.77,NE,48,0.0,0.0,64,0.00,CLR,SKC,0.02,WeatherDisplay:10.37,2013-03-11 13:30:00,
2013-03-11 13:40:00,34.3,23.8,29.77,East,100,0.0,0.0,65,0.00,CLR,SKC,0.02,WeatherDisplay:10.37,2013-03-11 13:40:00,
2013-03-11 13:50:00,34.3,24.2,29.76,ESE,102,0.0,0.0,66,0.00,CLR,SKC,0.02,WeatherDisplay:10.37,2013-03-11 13:50:00,
2013-03-11 13:55:00,34.8,24.6,29.76,ESE,106,0.0,0.0,66,0.00,CLR,SKC,0.02,WeatherDisplay:10.37,2013-03-11 13:55:00,
2013-03-11 14:00:00,34.9,24.7,29.76,East,84,0.0,0.0,66,0.00,CLR,SKC,0.02,WeatherDisplay:10.37,2013-03-11 14:00:00,
2013-03-11 14:05:00,34.7,24.1,29.76,East,94,0.0,0.0,65,0.00,CLR,SKC,0.02,WeatherDisplay:10.37,2013-03-11 14:05:00,
2013-03-11 14:10:00,34.5,24.0,29.76,ESE,114,0.0,0.0,65,0.00,CLR,SKC,0.02,WeatherDisplay:10.37,2013-03-11 14:10:00,
2013-03-11 14:15:00,34.5,23.2,29.76,East,90,0.0,0.0,63,0.00,CLR,SKC,0.02,WeatherDisplay:10.37,2013-03-11 14:15:00,
2013-03-11 14:25:00,35.4,24.8,29.77,East,83,0.0,0.0,65,0.00,CLR,SKC,0.02,WeatherDisplay:10.37,2013-03-11 14:25:00,
2013-03-11 14:30:00,35.2,24.3,29.77,ESE,102,0.0,0.0,64,0.00,CLR,SKC,0.02,WeatherDisplay:10.37,2013-03-11 14:30:00,
2013-03-11 14:40:00,34.5,24.0,29.76,East,99,0.0,0.0,65,0.00,CLR,SKC,0.02,WeatherDisplay:10.37,2013-03-11 14:40:00,
2013-03-11 14:45:00,34.7,24.1,29.76,ESE,106,0.0,0.0,65,0.00,CLR,SKC,0.02,WeatherDisplay:10.37,2013-03-11 14:45:00,
2013-03-11 14:50:00,35.2,24.3,29.76,East,94,0.0,0.0,64,0.00,CLR,SKC,0.02,WeatherDisplay:10.37,2013-03-11 14:50:00,
2013-03-11 14:55:00,34.9,23.9,29.76,ESE,103,0.0,0.0,64,0.00,CLR,SKC,0.02,WeatherDisplay:10.37,2013-03-11 14:55:00,
2013-03-11 15:00:00,34.5,23.6,29.76,ESE,104,0.0,0.0,64,0.00,CLR,SKC,0.02,WeatherDisplay:10.37,2013-03-11 15:00:00,
2013-03-11 15:05:00,34.6,24.0,29.76,East,101,0.0,0.0,65,0.00,CLR,SKC,0.02,WeatherDisplay:10.37,2013-03-11 15:05:00,
2013-03-11 15:10:00,34.3,23.8,29.76,ESE,109,0.0,0.0,65,0.00,CLR,SKC,0.02,WeatherDisplay:10.37,2013-03-11 15:10:00,
2013-03-11 15:15:00,34.3,23.8,29.76,SE,124,0.0,0.0,65,0.00,CLR,SKC,0.02,WeatherDisplay:10.37,2013-03-11 15:15:00,
2013-03-11 15:20:00,34.8,24.2,29.75,SE,130,0.0,0.0,65,0.00,CLR,SKC,0.02,WeatherDisplay:10.37,2013-03-11 15:20:00,
2013-03-11 15:25:00,35.2,23.9,29.75,East,95,0.0,0.0,63,0.00,CLR,SKC,0.02,WeatherDisplay:10.37,2013-03-11 15:25:00,
2013-03-11 15:30:00,34.9,22.4,29.75,East,86,0.0,0.0,60,0.00,CLR,SKC,0.02,WeatherDisplay:10.37,2013-03-11 15:30:00,
2013-03-11 15:35:00,34.7,22.2,29.75,ESE,113,0.0,0.0,60,0.00,CLR,SKC,0.02,WeatherDisplay:10.37,2013-03-11 15:35:00,
2013-03-11 15:40:00,34.7,21.8,29.75,ESE,110,0.0,0.0,59,0.00,CLR,SKC,0.02,WeatherDisplay:10.37,2013-03-11 15:40:00,
2013-03-11 15:45:00,34.5,21.2,29.75,East,93,0.0,0.0,58,0.00,CLR,SKC,0.02,WeatherDisplay:10.37,2013-03-11 15:45:00,
2013-03-11 15:50:00,34.5,21.2,29.75,East,84,0.0,0.0,58,0.00,CLR,SKC,0.02,WeatherDisplay:10.37,2013-03-11 15:50:00,
2013-03-11 15:55:00,34.5,21.2,29.75,ESE,115,0.0,0.0,58,0.00,CLR,SKC,0.02,WeatherDisplay:10.37,2013-03-11 15:55:00,
2013-03-11 16:00:00,34.5,21.2,29.75,East,90,0.0,0.0,58,0.00,CLR,SKC,0.02,WeatherDisplay:10.37,2013-03-11 16:00:00,
2013-03-11 16:05:00,34.6,20.5,29.75,ENE,77,0.0,0.0,56,0.00,CLR,SKC,0.02,WeatherDisplay:10.37,2013-03-11 16:05:00,
2013-03-11 16:10:00,34.3,19.8,29.75,ESE,102,0.0,0.0,55,0.00,CLR,SKC,0.02,WeatherDisplay:10.37,2013-03-11 16:10:00,
2013-03-11 16:15:00,34.3,19.8,29.75,ESE,115,0.0,0.0,55,0.00,CLR,SKC,0.02,WeatherDisplay:10.37,2013-03-11 16:15:00,
2013-03-11 16:20:00,34.3,20.7,29.75,ESE,109,0.0,0.0,57,0.00,CLR,SKC,0.02,WeatherDisplay:10.37,2013-03-11 16:20:00,
2013-03-11 16:25:00,34.3,20.3,29.75,East,100,0.0,0.0,56,0.00,CLR,SKC,0.02,WeatherDisplay:10.37,2013-03-11 16:25:00,
2013-03-11 16:30:00,34.3,20.7,29.75,ESE,109,0.0,0.0,57,0.00,CLR,SKC,0.02,WeatherDisplay:10.37,2013-03-11 16:30:00,
2013-03-11 16:40:00,34.3,21.5,29.75,ENE,65,0.0,0.0,59,0.00,CLR,SKC,0.02,WeatherDisplay:10.37,2013-03-11 16:40:00,
2013-03-11 16:45:00,34.3,21.5,29.75,ESE,113,0.0,0.0,59,0.00,CLR,SKC,0.02,WeatherDisplay:10.37,2013-03-11 16:45:00,
2013-03-11 16:50:00,34.3,20.7,29.76,SE,126,0.0,0.0,57,0.00,CLR,SKC,0.02,WeatherDisplay:10.37,2013-03-11 16:50:00,
2013-03-11 16:55:00,34.2,21.3,29.76,ESE,111,0.0,0.0,59,0.00,CLR,SKC,0.02,WeatherDisplay:10.37,2013-03-11 16:55:00,
2013-03-11 17:00:00,34.0,20.7,29.75,East,79,0.0,0.0,58,0.00,CLR,SKC,0.02,WeatherDisplay:10.37,2013-03-11 17:00:00,
2013-03-11 17:05:00,33.8,20.6,29.75,East,95,0.0,0.0,58,0.00,CLR,SKC,0.02,WeatherDisplay:10.37,2013-03-11 17:05:00,
2013-03-11 17:10:00,34.2,21.3,29.76,ESE,108,0.0,0.0,59,0.00,CLR,SKC,0.02,WeatherDisplay:10.37,2013-03-11 17:10:00,
2013-03-11 17:15:00,34.9,21.6,29.76,East,87,0.0,0.0,58,0.00,CLR,SKC,0.02,WeatherDisplay:10.37,2013-03-11 17:15:00,
2013-03-11 17:20:00,34.8,21.1,29.76,East,85,0.0,0.0,57,0.00,CLR,SKC,0.02,WeatherDisplay:10.37,2013-03-11 17:20:00,
2013-03-11 17:30:00,35.2,21.5,29.76,East,85,0.0,0.0,57,0.00,CLR,SKC,0.02,WeatherDisplay:10.37,2013-03-11 17:30:00,
2013-03-11 17:35:00,34.3,20.6,29.76,ESE,103,0.0,0.0,57,0.00,CLR,SKC,0.02,WeatherDisplay:10.37,2013-03-11 17:35:00,
2013-03-11 17:40:00,33.4,20.2,29.76,East,101,0.0,0.0,58,0.00,CLR,SKC,0.02,WeatherDisplay:10.37,2013-03-11 17:40:00,
2013-03-11 17:45:00,32.7,19.6,29.76,East,97,0.0,0.0,58,0.00,CLR,SKC,0.02,WeatherDisplay:10.37,2013-03-11 17:45:00,
2013-03-11 17:50:00,32.5,19.8,29.76,ESE,102,0.0,0.0,59,0.00,CLR,SKC,0.02,WeatherDisplay:10.37,2013-03-11 17:50:00,
2013-03-11 18:00:00,31.8,19.5,29.76,ENE,68,0.0,0.0,60,0.00,CLR,SKC,0.02,WeatherDisplay:10.37,2013-03-11 18:00:00,
2013-03-11 18:05:00,31.6,19.7,29.76,East,85,0.0,0.0,61,0.00,CLR,SKC,0.02,WeatherDisplay:10.37,2013-03-11 18:05:00,
2013-03-11 18:10:00,31.3,19.4,29.76,East,88,0.0,0.0,61,0.00,CLR,SKC,0.02,WeatherDisplay:10.37,2013-03-11 18:10:00,
2013-03-11 18:15:00,30.9,19.4,29.76,ENE,75,0.0,0.0,62,0.00,CLR,SKC,0.02,WeatherDisplay:10.37,2013-03-11 18:15:00,
2013-03-11 18:20:00,30.8,19.7,29.76,ENE,74,0.0,0.0,63,0.00,CLR,SKC,0.02,WeatherDisplay:10.37,2013-03-11 18:20:00,
2013-03-11 18:25:00,30.7,19.6,29.76,ENE,70,0.0,0.0,63,0.00,CLR,SKC,0.02,WeatherDisplay:10.37,2013-03-11 18:25:00,
2013-03-11 18:30:00,30.7,19.6,29.76,East,85,0.0,0.0,63,0.00,CLR,SKC,0.02,WeatherDisplay:10.37,2013-03-11 18:30:00,
2013-03-11 18:35:00,30.4,19.3,29.77,East,95,0.0,0.0,63,0.00,CLR,SKC,0.02,WeatherDisplay:10.37,2013-03-11 18:35:00,
2013-03-11 18:40:00,30.0,19.3,29.76,East,101,0.0,0.0,64,0.00,CLR,SKC,0.02,WeatherDisplay:10.37,2013-03-11 18:40:00,
2013-03-11 18:45:00,30.0,19.3,29.77,East,89,0.0,0.0,64,0.00,CLR,SKC,0.02,WeatherDisplay:10.37,2013-03-11 18:45:00,
2013-03-11 18:50:00,29.8,19.4,29.77,ENE,78,0.0,0.0,65,0.00,CLR,SKC,0.02,WeatherDisplay:10.37,2013-03-11 18:50:00,
2013-03-11 19:00:00,29.1,19.2,29.77,East,81,0.0,0.0,66,0.00,CLR,SKC,0.02,WeatherDisplay:10.37,2013-03-11 19:00:00,
2013-03-11 19:05:00,28.9,19.3,29.77,East,84,0.0,0.0,67,0.00,CLR,SKC,0.02,WeatherDisplay:10.37,2013-03-11 19:05:00,
2013-03-11 19:10:00,28.8,19.5,29.77,East,95,0.0,0.0,68,0.00,CLR,SKC,0.02,WeatherDisplay:10.37,2013-03-11 19:10:00,
2013-03-11 19:15:00,28.6,19.4,29.77,East,99,0.0,0.0,68,0.00,CLR,SKC,0.02,WeatherDisplay:10.37,2013-03-11 19:15:00,
2013-03-11 19:20:00,28.5,19.3,29.77,East,89,0.0,0.0,68,0.00,CLR,SKC,0.02,WeatherDisplay:10.37,2013-03-11 19:20:00,
2013-03-11 19:25:00,28.2,19.3,29.77,East,83,0.0,0.0,69,0.00,CLR,SKC,0.02,WeatherDisplay:10.37,2013-03-11 19:25:00,
2013-03-11 19:30:00,28.2,19.3,29.77,ENE,75,0.0,0.0,69,0.00,CLR,SKC,0.02,WeatherDisplay:10.37,2013-03-11 19:30:00,
2013-03-11 19:35:00,28.2,19.3,29.77,East,86,0.0,0.0,69,0.00,CLR,SKC,0.02,WeatherDisplay:10.37,2013-03-11 19:35:00,
2013-03-11 19:40:00,28.2,19.7,29.77,East,89,0.0,0.0,70,0.00,CLR,SKC,0.02,WeatherDisplay:10.37,2013-03-11 19:40:00,
2013-03-11 19:45:00,28.2,19.7,29.77,East,79,0.0,0.0,70,0.00,CLR,SKC,0.02,WeatherDisplay:10.37,2013-03-11 19:45:00,
2013-03-11 19:50:00,28.0,19.5,29.77,ENE,77,0.0,0.0,70,0.00,CLR,SKC,0.02,WeatherDisplay:10.37,2013-03-11 19:50:00,
2013-03-11 19:55:00,28.0,19.5,29.77,East,79,0.0,0.0,70,0.00,CLR,SKC,0.02,WeatherDisplay:10.37,2013-03-11 19:55:00,
2013-03-11 20:00:00,28.0,19.5,29.77,ENE,75,0.0,0.0,70,0.00,CLR,SKC,0.02,WeatherDisplay:10.37,2013-03-11 20:00:00,
2013-03-11 20:10:00,27.7,19.2,29.77,ENE,71,0.0,0.0,70,0.00,CLR,SKC,0.02,WeatherDisplay:10.37,2013-03-11 20:10:00,
2013-03-11 20:20:00,27.2,18.7,29.78,ENE,68,0.0,0.0,70,0.00,CLR,SKC,0.02,WeatherDisplay:10.37,2013-03-11 20:20:00,
2013-03-11 20:25:00,26.8,18.6,29.78,ENE,68,0.0,0.0,71,0.00,CLR,SKC,0.02,WeatherDisplay:10.37,2013-03-11 20:25:00,
2013-03-11 20:30:00,26.6,18.5,29.78,ENE,68,0.0,0.0,71,0.00,CLR,SKC,0.02,WeatherDisplay:10.37,2013-03-11 20:30:00,
2013-03-11 20:35:00,26.4,18.6,29.77,ENE,68,0.0,0.0,72,0.00,CLR,SKC,0.02,WeatherDisplay:10.37,2013-03-11 20:35:00,
2013-03-11 20:40:00,26.2,18.4,29.77,ENE,68,0.0,0.0,72,0.00,CLR,SKC,0.02,WeatherDisplay:10.37,2013-03-11 20:40:00,
2013-03-11 20:45:00,25.9,18.1,29.77,ENE,68,0.0,0.0,72,0.00,CLR,SKC,0.02,WeatherDisplay:10.37,2013-03-11 20:45:00,
2013-03-11 20:50:00,25.9,18.1,29.77,ENE,68,0.0,0.0,72,0.00,CLR,SKC,0.02,WeatherDisplay:10.37,2013-03-11 20:50:00,
2013-03-11 20:55:00,25.9,18.4,29.77,ENE,62,0.0,0.0,73,0.00,CLR,SKC,0.02,WeatherDisplay:10.37,2013-03-11 20:55:00,
2013-03-11 21:00:00,26.1,18.9,29.77,ENE,62,0.0,0.0,74,0.00,CLR,SKC,0.02,WeatherDisplay:10.37,2013-03-11 21:00:00,
2013-03-11 21:05:00,26.1,19.0,29.77,ENE,65,0.0,0.0,74,0.00,CLR,SKC,0.02,WeatherDisplay:10.37,2013-03-11 21:05:00,
2013-03-11 21:10:00,26.1,18.9,29.78,NE,53,0.0,0.0,74,0.00,CLR,SKC,0.02,WeatherDisplay:10.37,2013-03-11 21:10:00,
2013-03-11 21:15:00,25.9,18.7,29.78,NE,45,0.0,0.0,74,0.00,CLR,SKC,0.02,WeatherDisplay:10.37,2013-03-11 21:15:00,
2013-03-11 21:20:00,25.7,18.6,29.78,NE,53,0.0,0.0,74,0.00,CLR,SKC,0.02,WeatherDisplay:10.37,2013-03-11 21:20:00,
2013-03-11 21:25:00,25.7,18.6,29.77,NE,56,0.0,0.0,74,0.00,CLR,SKC,0.02,WeatherDisplay:10.37,2013-03-11 21:25:00,
2013-03-11 21:30:00,25.7,18.6,29.77,ENE,62,0.0,0.0,74,0.00,CLR,SKC,0.02,WeatherDisplay:10.37,2013-03-11 21:30:00,
2013-03-11 21:35:00,25.6,18.5,29.77,ENE,61,0.0,0.0,74,0.00,CLR,SKC,0.02,WeatherDisplay:10.37,2013-03-11 21:35:00,
2013-03-11 21:40:00,25.5,18.4,29.77,NE,46,0.0,0.0,74,0.00,CLR,SKC,0.02,WeatherDisplay:10.37,2013-03-11 21:40:00,
2013-03-11 21:50:00,25.0,18.2,29.77,NE,45,0.0,0.0,75,0.00,CLR,SKC,0.02,WeatherDisplay:10.37,2013-03-11 21:50:00,
2013-03-11 21:55:00,25.0,18.2,29.78,NE,45,0.0,0.0,75,0.00,CLR,SKC,0.02,WeatherDisplay:10.37,2013-03-11 21:55:00,
2013-03-11 22:00:00,25.0,18.2,29.77,NE,45,0.0,0.0,75,0.00,CLR,SKC,0.02,WeatherDisplay:10.37,2013-03-11 22:00:00,
2013-03-11 22:05:00,25.0,18.2,29.77,NE,45,0.0,0.0,75,0.00,CLR,SKC,0.02,WeatherDisplay:10.37,2013-03-11 22:05:00,
2013-03-11 22:10:00,25.0,18.2,29.77,NE,34,0.0,0.0,75,0.00,CLR,SKC,0.02,WeatherDisplay:10.37,2013-03-11 22:10:00,
2013-03-11 22:15:00,25.0,18.2,29.77,NNE,23,0.0,0.0,75,0.00,CLR,SKC,0.02,WeatherDisplay:10.37,2013-03-11 22:15:00,
2013-03-11 22:20:00,25.0,18.5,29.77,NNE,22,0.0,0.0,76,0.00,CLR,SKC,0.02,WeatherDisplay:10.37,2013-03-11 22:20:00,
2013-03-11 22:30:00,25.2,18.7,29.77,ENE,65,0.0,0.0,76,0.00,CLR,SKC,0.02,WeatherDisplay:10.37,2013-03-11 22:30:00,
2013-03-11 22:35:00,25.2,18.7,29.77,ENE,75,0.0,0.0,76,0.00,CLR,SKC,0.02,WeatherDisplay:10.37,2013-03-11 22:35:00,
2013-03-11 22:40:00,25.0,18.5,29.77,ENE,68,0.0,0.0,76,0.00,CLR,SKC,0.02,WeatherDisplay:10.37,2013-03-11 22:40:00,
2013-03-11 22:45:00,25.0,18.5,29.77,ENE,68,0.0,0.0,76,0.00,CLR,SKC,0.02,WeatherDisplay:10.37,2013-03-11 22:45:00,
2013-03-11 22:50:00,24.5,18.0,29.77,ENE,68,0.0,0.0,76,0.00,CLR,SKC,0.02,WeatherDisplay:10.37,2013-03-11 22:50:00,
2013-03-11 22:55:00,24.3,17.8,29.77,ENE,68,0.0,0.0,76,0.00,CLR,SKC,0.02,WeatherDisplay:10.37,2013-03-11 22:55:00,
2013-03-11 23:00:00,23.9,17.4,29.78,ENE,68,0.0,0.0,76,0.00,CLR,SKC,0.02,WeatherDisplay:10.37,2013-03-11 23:00:00,
2013-03-11 23:05:00,23.7,17.2,29.77,ENE,68,0.0,0.0,76,0.00,CLR,SKC,0.02,WeatherDisplay:10.37,2013-03-11 23:05:00,
2013-03-11 23:10:00,23.5,17.1,29.77,ENE,68,0.0,0.0,76,0.00,CLR,SKC,0.02,WeatherDisplay:10.37,2013-03-11 23:10:00,
2013-03-11 23:15:00,23.2,16.7,29.77,East,93,0.0,0.0,76,0.00,CLR,SKC,0.02,WeatherDisplay:10.37,2013-03-11 23:15:00,
2013-03-11 23:25:00,22.8,16.4,29.77,SE,135,0.0,0.0,76,0.00,CLR,SKC,0.02,WeatherDisplay:10.37,2013-03-11 23:25:00,
2013-03-11 23:30:00,22.8,16.7,29.77,SE,135,0.0,0.0,77,0.00,CLR,SKC,0.02,WeatherDisplay:10.37,2013-03-11 23:30:00,
2013-03-11 23:35:00,22.6,16.5,29.77,SE,135,0.0,0.0,77,0.00,CLR,SKC,0.02,WeatherDisplay:10.37,2013-03-11 23:35:00,
2013-03-11 23:40:00,22.5,16.3,29.77,SE,135,0.0,0.0,77,0.00,CLR,SKC,0.02,WeatherDisplay:10.37,2013-03-11 23:40:00,
2013-03-11 23:45:00,22.5,16.3,29.77,SE,135,0.0,0.0,77,0.00,CLR,SKC,0.02,WeatherDisplay:10.37,2013-03-11 23:45:00,
2013-03-11 23:50:00,22.3,16.2,29.77,SE,135,0.0,0.0,77,0.00,CLR,SKC,0.02,WeatherDisplay:10.37,2013-03-11 23:50:00,